sensor_id;sensor_type;location;lat;lon;timestamp;pressure;altitude;pressure_sealevel;temperature;humidity
21276;BME280;36472;52.170;20.884;2022-09-01T00:00:12;100971.97;;;15.48;69.48
21276;BME280;36472;52.170;20.884;2022-09-01T00:03:00;100978.94;;;15.49;69.91
21276;BME280;36472;52.170;20.884;2022-09-01T00:05:29;100964.47;;;15.42;69.80
21276;BME280;36472;52.170;20.884;2022-09-01T00:07:59;100965.19;;;15.32;70.65
21276;BME280;36472;52.170;20.884;2022-09-01T00:10:29;100968.53;;;15.23;71.21
21276;BME280;36472;52.170;20.884;2022-09-01T00:12:58;100962.28;;;15.24;70.90
21276;BME280;36472;52.170;20.884;2022-09-01T00:15:27;100962.47;;;15.10;71.31
21276;BME280;36472;52.170;20.884;2022-09-01T00:17:56;100971.69;;;14.69;73.40
21276;BME280;36472;52.170;20.884;2022-09-01T00:20:25;100966.03;;;14.62;73.82
21276;BME280;36472;52.170;20.884;2022-09-01T00:22:53;100963.81;;;14.43;74.65
21276;BME280;36472;52.170;20.884;2022-09-01T00:25:23;100970.75;;;14.33;75.04
21276;BME280;36472;52.170;20.884;2022-09-01T00:27:54;100972.59;;;14.81;73.60
21276;BME280;36472;52.170;20.884;2022-09-01T00:30:25;100966.63;;;14.90;72.61
21276;BME280;36472;52.170;20.884;2022-09-01T00:32:55;100961.94;;;14.93;72.41
21276;BME280;36472;52.170;20.884;2022-09-01T00:35:24;100967.66;;;14.76;73.10
21276;BME280;36472;52.170;20.884;2022-09-01T00:37:52;100976.75;;;14.96;72.32
21276;BME280;36472;52.170;20.884;2022-09-01T00:40:24;100965.91;;;14.88;72.44
21276;BME280;36472;52.170;20.884;2022-09-01T00:42:54;100965.47;;;14.70;73.45
21276;BME280;36472;52.170;20.884;2022-09-01T00:45:23;100970.97;;;14.67;73.90
21276;BME280;36472;52.170;20.884;2022-09-01T00:47:52;100973.28;;;14.71;73.08
21276;BME280;36472;52.170;20.884;2022-09-01T00:50:22;100961.81;;;14.59;73.82
21276;BME280;36472;52.170;20.884;2022-09-01T00:52:54;100961.88;;;14.71;73.23
21276;BME280;36472;52.170;20.884;2022-09-01T00:55:29;100957.50;;;14.94;71.72
21276;BME280;36472;52.170;20.884;2022-09-01T00:58:02;100964.88;;;15.02;71.94
21276;BME280;36472;52.170;20.884;2022-09-01T01:00:35;100965.09;;;14.99;71.79
21276;BME280;36472;52.170;20.884;2022-09-01T01:03:09;100967.63;;;14.52;73.76
21276;BME280;36472;52.170;20.884;2022-09-01T01:05:44;100965.50;;;14.20;75.65
21276;BME280;36472;52.170;20.884;2022-09-01T01:08:24;100955.88;;;14.19;75.31
21276;BME280;36472;52.170;20.884;2022-09-01T01:11:02;100962.28;;;13.78;77.39
21276;BME280;36472;52.170;20.884;2022-09-01T01:13:47;100966.09;;;13.61;78.20
21276;BME280;36472;52.170;20.884;2022-09-01T01:16:18;100967.16;;;13.71;78.77
21276;BME280;36472;52.170;20.884;2022-09-01T01:18:47;100961.47;;;13.52;79.31
21276;BME280;36472;52.170;20.884;2022-09-01T01:21:21;100973.09;;;13.22;80.86
21276;BME280;36472;52.170;20.884;2022-09-01T01:24:21;100966.28;;;13.32;80.71
21276;BME280;36472;52.170;20.884;2022-09-01T01:26:52;100958.69;;;13.40;80.19
21276;BME280;36472;52.170;20.884;2022-09-01T01:29:21;100953.28;;;13.29;80.12
21276;BME280;36472;52.170;20.884;2022-09-01T01:31:50;100955.13;;;13.67;79.09
21276;BME280;36472;52.170;20.884;2022-09-01T01:34:20;100959.31;;;13.70;77.89
21276;BME280;36472;52.170;20.884;2022-09-01T01:36:52;100952.59;;;13.40;79.37
21276;BME280;36472;52.170;20.884;2022-09-01T01:39:25;100960.75;;;13.09;81.08
21276;BME280;36472;52.170;20.884;2022-09-01T01:41:56;100955.94;;;12.89;81.86
21276;BME280;36472;52.170;20.884;2022-09-01T01:44:26;100964.06;;;12.86;82.32
21276;BME280;36472;52.170;20.884;2022-09-01T01:47:00;100954.13;;;12.77;82.80
21276;BME280;36472;52.170;20.884;2022-09-01T01:49:36;100959.41;;;12.77;83.04
21276;BME280;36472;52.170;20.884;2022-09-01T01:52:12;100961.41;;;12.46;84.83
21276;BME280;36472;52.170;20.884;2022-09-01T01:54:46;100960.94;;;12.39;85.94
21276;BME280;36472;52.170;20.884;2022-09-01T01:57:16;100958.47;;;12.50;84.89
21276;BME280;36472;52.170;20.884;2022-09-01T01:59:45;100964.72;;;12.35;85.39
21276;BME280;36472;52.170;20.884;2022-09-01T02:02:13;100962.56;;;12.27;86.24
21276;BME280;36472;52.170;20.884;2022-09-01T02:04:42;100951.09;;;12.28;85.82
21276;BME280;36472;52.170;20.884;2022-09-01T02:07:12;100950.69;;;12.34;85.11
21276;BME280;36472;52.170;20.884;2022-09-01T02:09:41;100955.63;;;12.12;86.61
21276;BME280;36472;52.170;20.884;2022-09-01T02:12:16;100958.91;;;12.57;84.65
21276;BME280;36472;52.170;20.884;2022-09-01T02:14:46;100949.28;;;12.83;82.42
21276;BME280;36472;52.170;20.884;2022-09-01T02:17:15;100966.06;;;12.55;83.93
21276;BME280;36472;52.170;20.884;2022-09-01T02:19:45;100941.13;;;12.19;85.44
21276;BME280;36472;52.170;20.884;2022-09-01T02:22:14;100955.84;;;12.36;85.00
21276;BME280;36472;52.170;20.884;2022-09-01T02:24:46;100955.59;;;12.26;85.12
21276;BME280;36472;52.170;20.884;2022-09-01T02:27:17;100948.47;;;11.85;88.12
21276;BME280;36472;52.170;20.884;2022-09-01T02:29:53;100948.66;;;11.68;89.46
21276;BME280;36472;52.170;20.884;2022-09-01T02:32:25;100945.28;;;11.66;90.20
21276;BME280;36472;52.170;20.884;2022-09-01T02:34:54;100943.66;;;11.63;90.08
21276;BME280;36472;52.170;20.884;2022-09-01T02:37:27;100943.56;;;11.50;91.00
21276;BME280;36472;52.170;20.884;2022-09-01T02:39:56;100945.38;;;11.50;91.27
21276;BME280;36472;52.170;20.884;2022-09-01T02:42:27;100946.50;;;11.60;90.56
21276;BME280;36472;52.170;20.884;2022-09-01T02:44:56;100943.13;;;12.01;88.26
21276;BME280;36472;52.170;20.884;2022-09-01T02:47:25;100954.28;;;12.33;85.14
21276;BME280;36472;52.170;20.884;2022-09-01T02:49:56;100953.03;;;11.97;86.51
21276;BME280;36472;52.170;20.884;2022-09-01T02:52:29;100944.47;;;11.94;86.87
21276;BME280;36472;52.170;20.884;2022-09-01T02:55:02;100957.16;;;12.02;85.21
21276;BME280;36472;52.170;20.884;2022-09-01T02:57:33;100955.66;;;11.97;85.67
21276;BME280;36472;52.170;20.884;2022-09-01T03:00:05;100948.31;;;12.03;85.18
21276;BME280;36472;52.170;20.884;2022-09-01T03:02:49;100960.53;;;12.18;85.00
21276;BME280;36472;52.170;20.884;2022-09-01T03:05:21;100952.47;;;12.34;83.41
21276;BME280;36472;52.170;20.884;2022-09-01T03:07:56;100948.56;;;12.12;84.62
21276;BME280;36472;52.170;20.884;2022-09-01T03:10:30;100950.31;;;12.26;84.14
21276;BME280;36472;52.170;20.884;2022-09-01T03:13:05;100941.41;;;12.56;81.36
21276;BME280;36472;52.170;20.884;2022-09-01T03:15:38;100948.66;;;12.25;83.72
21276;BME280;36472;52.170;20.884;2022-09-01T03:18:09;100959.19;;;12.25;83.31
21276;BME280;36472;52.170;20.884;2022-09-01T03:20:41;100950.84;;;12.04;83.70
21276;BME280;36472;52.170;20.884;2022-09-01T03:23:15;100956.47;;;11.84;85.00
21276;BME280;36472;52.170;20.884;2022-09-01T03:25:48;100955.41;;;11.43;87.20
21276;BME280;36472;52.170;20.884;2022-09-01T03:28:18;100959.06;;;11.26;89.76
21276;BME280;36472;52.170;20.884;2022-09-01T03:30:51;100964.00;;;11.16;90.08
21276;BME280;36472;52.170;20.884;2022-09-01T03:33:23;100962.19;;;11.02;91.02
21276;BME280;36472;52.170;20.884;2022-09-01T03:35:55;100962.09;;;11.04;91.05
21276;BME280;36472;52.170;20.884;2022-09-01T03:38:24;100959.69;;;10.85;92.94
21276;BME280;36472;52.170;20.884;2022-09-01T03:40:58;100958.63;;;11.03;92.06
21276;BME280;36472;52.170;20.884;2022-09-01T03:43:33;100962.63;;;11.25;89.77
21276;BME280;36472;52.170;20.884;2022-09-01T03:46:03;100966.16;;;11.69;88.64
21276;BME280;36472;52.170;20.884;2022-09-01T03:48:32;100965.13;;;11.57;86.83
21276;BME280;36472;52.170;20.884;2022-09-01T03:51:03;100972.38;;;11.23;89.10
21276;BME280;36472;52.170;20.884;2022-09-01T03:53:36;100964.28;;;11.71;88.70
21276;BME280;36472;52.170;20.884;2022-09-01T03:56:06;100966.91;;;11.12;90.35
21276;BME280;36472;52.170;20.884;2022-09-01T03:58:37;100962.69;;;11.09;91.17
21276;BME280;36472;52.170;20.884;2022-09-01T04:01:06;100951.69;;;11.17;90.91
21276;BME280;36472;52.170;20.884;2022-09-01T04:03:40;100958.50;;;11.35;90.12
21276;BME280;36472;52.170;20.884;2022-09-01T04:06:14;100964.63;;;11.36;89.03
21276;BME280;36472;52.170;20.884;2022-09-01T04:08:44;100963.88;;;11.63;88.56
21276;BME280;36472;52.170;20.884;2022-09-01T04:11:17;100961.81;;;11.53;87.62
21276;BME280;36472;52.170;20.884;2022-09-01T04:13:52;100967.25;;;11.36;90.19
21276;BME280;36472;52.170;20.884;2022-09-01T04:16:24;100963.22;;;11.45;87.73
21276;BME280;36472;52.170;20.884;2022-09-01T04:19:15;100956.94;;;11.17;89.96
21276;BME280;36472;52.170;20.884;2022-09-01T04:21:50;100962.00;;;11.36;89.29
21276;BME280;36472;52.170;20.884;2022-09-01T04:24:22;100966.44;;;12.07;85.66
21276;BME280;36472;52.170;20.884;2022-09-01T04:26:53;100961.00;;;11.96;86.69
21276;BME280;36472;52.170;20.884;2022-09-01T04:29:25;100945.81;;;11.28;88.92
21276;BME280;36472;52.170;20.884;2022-09-01T04:32:00;100965.28;;;11.39;89.85
21276;BME280;36472;52.170;20.884;2022-09-01T04:34:35;100966.91;;;11.85;87.82
21276;BME280;36472;52.170;20.884;2022-09-01T04:37:11;100972.59;;;12.49;84.24
21276;BME280;36472;52.170;20.884;2022-09-01T04:39:47;100970.06;;;12.75;82.94
21276;BME280;36472;52.170;20.884;2022-09-01T04:42:25;100972.75;;;12.05;85.94
21276;BME280;36472;52.170;20.884;2022-09-01T04:44:58;100964.38;;;11.84;87.41
21276;BME280;36472;52.170;20.884;2022-09-01T04:47:37;100966.63;;;11.75;87.68
21276;BME280;36472;52.170;20.884;2022-09-01T04:50:11;100973.59;;;12.20;87.47
21276;BME280;36472;52.170;20.884;2022-09-01T04:53:05;100968.81;;;12.12;85.70
21276;BME280;36472;52.170;20.884;2022-09-01T04:55:40;100974.47;;;13.02;82.84
21276;BME280;36472;52.170;20.884;2022-09-01T04:58:14;100977.78;;;12.91;81.89
21276;BME280;36472;52.170;20.884;2022-09-01T05:00:48;100978.56;;;12.66;83.57
21276;BME280;36472;52.170;20.884;2022-09-01T05:03:20;100974.22;;;13.05;83.11
21276;BME280;36472;52.170;20.884;2022-09-01T05:05:58;100967.97;;;13.20;80.75
21276;BME280;36472;52.170;20.884;2022-09-01T05:08:31;100970.16;;;13.14;79.22
21276;BME280;36472;52.170;20.884;2022-09-01T05:11:05;100969.06;;;12.63;82.84
21276;BME280;36472;52.170;20.884;2022-09-01T05:13:48;100978.44;;;12.95;81.59
21276;BME280;36472;52.170;20.884;2022-09-01T05:16:25;100969.84;;;13.18;79.48
21276;BME280;36472;52.170;20.884;2022-09-01T05:18:56;100966.09;;;13.61;78.58
21276;BME280;36472;52.170;20.884;2022-09-01T05:21:30;100969.03;;;13.95;77.32
21276;BME280;36472;52.170;20.884;2022-09-01T05:23:59;100965.41;;;14.09;75.92
21276;BME280;36472;52.170;20.884;2022-09-01T05:26:32;100975.81;;;13.99;76.47
21276;BME280;36472;52.170;20.884;2022-09-01T05:29:05;100978.88;;;13.80;78.12
21276;BME280;36472;52.170;20.884;2022-09-01T05:31:39;100978.91;;;14.30;74.19
21276;BME280;36472;52.170;20.884;2022-09-01T05:34:09;100974.91;;;14.61;73.90
21276;BME280;36472;52.170;20.884;2022-09-01T05:36:43;100979.28;;;13.87;75.98
21276;BME280;36472;52.170;20.884;2022-09-01T05:39:13;100970.81;;;14.07;75.08
21276;BME280;36472;52.170;20.884;2022-09-01T05:41:43;100971.59;;;13.83;76.81
21276;BME280;36472;52.170;20.884;2022-09-01T05:44:13;100974.53;;;13.92;77.29
21276;BME280;36472;52.170;20.884;2022-09-01T05:46:44;100970.00;;;13.68;77.60
21276;BME280;36472;52.170;20.884;2022-09-01T05:49:16;100976.03;;;13.57;78.03
21276;BME280;36472;52.170;20.884;2022-09-01T05:51:49;100977.75;;;14.21;74.94
21276;BME280;36472;52.170;20.884;2022-09-01T05:54:23;100978.13;;;14.40;75.15
21276;BME280;36472;52.170;20.884;2022-09-01T05:56:55;100976.22;;;14.80;73.95
21276;BME280;36472;52.170;20.884;2022-09-01T05:59:45;100981.31;;;14.70;73.22
21276;BME280;36472;52.170;20.884;2022-09-01T06:02:23;100980.09;;;14.87;71.59
21276;BME280;36472;52.170;20.884;2022-09-01T06:04:55;100979.28;;;14.98;71.86
21276;BME280;36472;52.170;20.884;2022-09-01T06:07:31;100974.25;;;15.41;70.39
21276;BME280;36472;52.170;20.884;2022-09-01T06:10:01;100970.00;;;15.27;70.98
21276;BME280;36472;52.170;20.884;2022-09-01T06:12:30;100971.78;;;15.27;71.29
21276;BME280;36472;52.170;20.884;2022-09-01T06:15:00;100970.03;;;15.50;70.65
21276;BME280;36472;52.170;20.884;2022-09-01T06:17:32;100973.72;;;15.94;68.14
21276;BME280;36472;52.170;20.884;2022-09-01T06:20:05;100968.94;;;15.41;68.58
21276;BME280;36472;52.170;20.884;2022-09-01T06:22:40;100967.28;;;15.51;69.62
21276;BME280;36472;52.170;20.884;2022-09-01T06:25:10;100977.75;;;15.64;69.07
21276;BME280;36472;52.170;20.884;2022-09-01T06:27:43;100975.34;;;15.50;69.50
21276;BME280;36472;52.170;20.884;2022-09-01T06:30:16;100982.28;;;16.09;66.05
21276;BME280;36472;52.170;20.884;2022-09-01T06:33:09;100981.81;;;16.59;62.19
21276;BME280;36472;52.170;20.884;2022-09-01T06:35:43;100985.47;;;16.79;62.72
21276;BME280;36472;52.170;20.884;2022-09-01T06:38:14;100989.59;;;16.72;63.41
21276;BME280;36472;52.170;20.884;2022-09-01T06:40:47;100988.63;;;17.37;60.93
21276;BME280;36472;52.170;20.884;2022-09-01T06:43:21;100986.84;;;17.27;61.19
21276;BME280;36472;52.170;20.884;2022-09-01T06:45:50;100985.97;;;17.37;61.10
21276;BME280;36472;52.170;20.884;2022-09-01T06:48:27;100988.56;;;17.07;61.34
21276;BME280;36472;52.170;20.884;2022-09-01T06:51:07;100984.41;;;17.56;59.76
21276;BME280;36472;52.170;20.884;2022-09-01T06:53:46;100986.06;;;17.57;59.16
21276;BME280;36472;52.170;20.884;2022-09-01T06:56:25;100983.34;;;17.89;58.14
21276;BME280;36472;52.170;20.884;2022-09-01T06:59:00;100984.78;;;17.51;59.80
21276;BME280;36472;52.170;20.884;2022-09-01T07:01:33;100988.13;;;18.05;57.50
21276;BME280;36472;52.170;20.884;2022-09-01T07:04:04;100993.66;;;18.83;53.75
21276;BME280;36472;52.170;20.884;2022-09-01T07:06:44;100995.63;;;19.11;53.75
21276;BME280;36472;52.170;20.884;2022-09-01T07:09:55;100994.75;;;20.52;48.86
21276;BME280;36472;52.170;20.884;2022-09-01T07:12:49;100989.81;;;21.81;46.02
21276;BME280;36472;52.170;20.884;2022-09-01T07:15:38;100990.03;;;21.96;46.22
21276;BME280;36472;52.170;20.884;2022-09-01T07:18:32;100997.16;;;22.22;44.98
21276;BME280;36472;52.170;20.884;2022-09-01T07:21:05;100989.31;;;23.37;42.28
21276;BME280;36472;52.170;20.884;2022-09-01T07:23:55;100993.00;;;23.28;42.55
21276;BME280;36472;52.170;20.884;2022-09-01T07:26:40;100997.25;;;25.12;38.67
21276;BME280;36472;52.170;20.884;2022-09-01T07:29:29;100986.84;;;26.58;35.81
21276;BME280;36472;52.170;20.884;2022-09-01T07:31:59;100995.19;;;27.91;33.60
21276;BME280;36472;52.170;20.884;2022-09-01T07:34:49;100993.88;;;26.95;34.13
21276;BME280;36472;52.170;20.884;2022-09-01T07:37:22;101002.19;;;26.06;35.71
21276;BME280;36472;52.170;20.884;2022-09-01T07:40:17;101002.16;;;28.07;32.81
21276;BME280;36472;52.170;20.884;2022-09-01T07:43:26;100998.00;;;28.72;31.64
21276;BME280;36472;52.170;20.884;2022-09-01T07:46:19;100997.09;;;28.45;32.49
21276;BME280;36472;52.170;20.884;2022-09-01T07:49:08;100997.13;;;27.97;32.44
21276;BME280;36472;52.170;20.884;2022-09-01T07:51:57;100999.03;;;28.03;32.12
21276;BME280;36472;52.170;20.884;2022-09-01T07:54:32;100992.34;;;27.36;33.88
21276;BME280;36472;52.170;20.884;2022-09-01T07:57:04;101001.34;;;28.81;31.66
21276;BME280;36472;52.170;20.884;2022-09-01T07:59:34;100999.50;;;28.27;31.81
21276;BME280;36472;52.170;20.884;2022-09-01T08:02:23;100992.59;;;27.69;33.37
21276;BME280;36472;52.170;20.884;2022-09-01T08:04:54;101001.78;;;27.47;32.93
21276;BME280;36472;52.170;20.884;2022-09-01T08:07:23;100999.50;;;27.22;33.80
21276;BME280;36472;52.170;20.884;2022-09-01T08:09:53;100989.75;;;26.78;34.46
21276;BME280;36472;52.170;20.884;2022-09-01T08:12:29;100994.97;;;25.24;37.30
21276;BME280;36472;52.170;20.884;2022-09-01T08:14:58;100999.22;;;25.56;37.41
21276;BME280;36472;52.170;20.884;2022-09-01T08:17:47;100994.03;;;26.87;34.39
21276;BME280;36472;52.170;20.884;2022-09-01T08:20:20;101001.63;;;25.81;36.04
21276;BME280;36472;52.170;20.884;2022-09-01T08:22:52;100992.63;;;24.20;38.47
21276;BME280;36472;52.170;20.884;2022-09-01T08:25:29;100992.19;;;23.27;41.09
21276;BME280;36472;52.170;20.884;2022-09-01T08:28:00;100991.34;;;21.40;44.81
21276;BME280;36472;52.170;20.884;2022-09-01T08:30:30;100984.47;;;21.90;42.75
21276;BME280;36472;52.170;20.884;2022-09-01T08:33:01;100991.44;;;21.48;43.70
21276;BME280;36472;52.170;20.884;2022-09-01T08:35:46;100987.38;;;21.00;45.73
21276;BME280;36472;52.170;20.884;2022-09-01T08:38:16;100987.22;;;21.01;46.07
21276;BME280;36472;52.170;20.884;2022-09-01T08:40:52;100986.38;;;20.65;47.65
21276;BME280;36472;52.170;20.884;2022-09-01T08:43:47;100985.91;;;19.96;50.80
21276;BME280;36472;52.170;20.884;2022-09-01T08:46:23;100991.38;;;19.94;49.77
21276;BME280;36472;52.170;20.884;2022-09-01T08:48:57;100986.50;;;19.33;51.92
21276;BME280;36472;52.170;20.884;2022-09-01T08:52:14;100982.91;;;19.71;51.38
21276;BME280;36472;52.170;20.884;2022-09-01T08:54:53;100992.66;;;18.75;54.56
21276;BME280;36472;52.170;20.884;2022-09-01T08:57:33;100983.59;;;19.73;51.43
21276;BME280;36472;52.170;20.884;2022-09-01T09:00:25;100991.19;;;19.58;51.93
21276;BME280;36472;52.170;20.884;2022-09-01T09:03:16;100991.22;;;19.49;52.21
21276;BME280;36472;52.170;20.884;2022-09-01T09:06:04;100985.53;;;19.24;52.81
21276;BME280;36472;52.170;20.884;2022-09-01T09:08:52;100987.63;;;19.20;52.98
21276;BME280;36472;52.170;20.884;2022-09-01T09:11:57;100983.72;;;22.06;46.04
21276;BME280;36472;52.170;20.884;2022-09-01T09:14:53;100995.16;;;24.76;39.58
21276;BME280;36472;52.170;20.884;2022-09-01T09:17:32;100990.69;;;26.12;36.79
21276;BME280;36472;52.170;20.884;2022-09-01T09:20:04;100985.69;;;27.10;34.58
21276;BME280;36472;52.170;20.884;2022-09-01T09:22:33;100982.59;;;28.05;33.30
21276;BME280;36472;52.170;20.884;2022-09-01T09:25:07;100990.69;;;26.48;35.50
21276;BME280;36472;52.170;20.884;2022-09-01T09:27:40;100975.78;;;28.09;32.39
21276;BME280;36472;52.170;20.884;2022-09-01T09:30:14;100986.31;;;29.79;29.07
21276;BME280;36472;52.170;20.884;2022-09-01T09:32:51;100970.31;;;29.57;29.39
21276;BME280;36472;52.170;20.884;2022-09-01T09:35:43;100979.28;;;30.62;28.29
21276;BME280;36472;52.170;20.884;2022-09-01T09:38:21;100969.09;;;28.60;30.80
21276;BME280;36472;52.170;20.884;2022-09-01T09:40:59;100971.47;;;30.40;28.45
21276;BME280;36472;52.170;20.884;2022-09-01T09:43:56;100969.84;;;30.96;27.52
21276;BME280;36472;52.170;20.884;2022-09-01T09:46:35;100966.06;;;30.40;27.86
21276;BME280;36472;52.170;20.884;2022-09-01T09:49:12;100962.53;;;28.27;30.04
21276;BME280;36472;52.170;20.884;2022-09-01T09:51:46;100963.28;;;25.79;34.42
21276;BME280;36472;52.170;20.884;2022-09-01T09:54:22;100948.72;;;28.02;31.26
21276;BME280;36472;52.170;20.884;2022-09-01T09:57:09;100948.72;;;27.60;31.41
21276;BME280;36472;52.170;20.884;2022-09-01T09:59:44;100942.81;;;26.94;32.30
21276;BME280;36472;52.170;20.884;2022-09-01T10:02:32;100946.19;;;26.16;33.87
21276;BME280;36472;52.170;20.884;2022-09-01T10:05:27;100956.13;;;24.65;34.15
21276;BME280;36472;52.170;20.884;2022-09-01T10:07:57;100950.34;;;25.14;33.63
21276;BME280;36472;52.170;20.884;2022-09-01T10:10:30;100951.19;;;24.14;35.95
21276;BME280;36472;52.170;20.884;2022-09-01T10:13:07;100940.16;;;23.61;37.64
21276;BME280;36472;52.170;20.884;2022-09-01T10:15:40;100949.22;;;24.08;36.68
21276;BME280;36472;52.170;20.884;2022-09-01T10:18:17;100946.16;;;24.42;36.34
21276;BME280;36472;52.170;20.884;2022-09-01T10:20:55;100944.00;;;25.75;33.12
21276;BME280;36472;52.170;20.884;2022-09-01T10:23:30;100950.88;;;25.63;32.62
21276;BME280;36472;52.170;20.884;2022-09-01T10:26:08;100950.19;;;25.75;33.08
21276;BME280;36472;52.170;20.884;2022-09-01T10:28:47;100948.06;;;26.16;34.03
21276;BME280;36472;52.170;20.884;2022-09-01T10:31:20;100941.88;;;26.00;32.98
21276;BME280;36472;52.170;20.884;2022-09-01T10:33:52;100952.53;;;25.64;33.27
21276;BME280;36472;52.170;20.884;2022-09-01T10:36:25;100946.97;;;25.12;34.13
21276;BME280;36472;52.170;20.884;2022-09-01T10:38:54;100948.97;;;24.49;34.63
21276;BME280;36472;52.170;20.884;2022-09-01T10:41:52;100948.41;;;24.31;35.16
21276;BME280;36472;52.170;20.884;2022-09-01T10:44:28;100951.69;;;25.33;33.66
21276;BME280;36472;52.170;20.884;2022-09-01T10:47:09;100953.28;;;25.43;33.30
21276;BME280;36472;52.170;20.884;2022-09-01T10:50:00;100952.53;;;26.08;30.73
21276;BME280;36472;52.170;20.884;2022-09-01T10:52:59;100955.44;;;26.28;30.00
21276;BME280;36472;52.170;20.884;2022-09-01T10:55:43;100952.75;;;25.09;31.96
21276;BME280;36472;52.170;20.884;2022-09-01T10:58:38;100943.91;;;25.53;31.87
21276;BME280;36472;52.170;20.884;2022-09-01T11:02:19;100937.78;;;25.45;32.67
21276;BME280;36472;52.170;20.884;2022-09-01T11:05:15;100931.63;;;26.10;31.36
21276;BME280;36472;52.170;20.884;2022-09-01T11:07:44;100933.47;;;26.10;30.76
21276;BME280;36472;52.170;20.884;2022-09-01T11:10:47;100947.03;;;24.89;31.97
21276;BME280;36472;52.170;20.884;2022-09-01T11:13:41;100946.56;;;24.62;33.07
21276;BME280;36472;52.170;20.884;2022-09-01T11:16:30;100929.56;;;24.39;33.15
21276;BME280;36472;52.170;20.884;2022-09-01T11:19:34;100943.03;;;24.62;32.49
21276;BME280;36472;52.170;20.884;2022-09-01T11:22:20;100941.16;;;24.08;32.27
21276;BME280;36472;52.170;20.884;2022-09-01T11:25:38;100932.34;;;23.91;33.36
21276;BME280;36472;52.170;20.884;2022-09-01T11:28:43;100934.94;;;24.39;32.09
21276;BME280;36472;52.170;20.884;2022-09-01T11:31:27;100935.41;;;24.42;32.57
21276;BME280;36472;52.170;20.884;2022-09-01T11:34:15;100933.84;;;24.25;32.56
21276;BME280;36472;52.170;20.884;2022-09-01T11:36:58;100928.16;;;23.80;33.01
21276;BME280;36472;52.170;20.884;2022-09-01T11:39:39;100929.50;;;23.84;33.62
21276;BME280;36472;52.170;20.884;2022-09-01T11:42:18;100925.75;;;23.54;35.12
21276;BME280;36472;52.170;20.884;2022-09-01T11:44:52;100930.84;;;23.80;33.50
21276;BME280;36472;52.170;20.884;2022-09-01T11:47:29;100931.22;;;23.69;32.78
21276;BME280;36472;52.170;20.884;2022-09-01T11:50:04;100930.31;;;23.37;33.52
21276;BME280;36472;52.170;20.884;2022-09-01T11:52:35;100926.66;;;23.05;33.77
21276;BME280;36472;52.170;20.884;2022-09-01T11:55:09;100926.00;;;22.62;35.14
21276;BME280;36472;52.170;20.884;2022-09-01T11:57:39;100935.66;;;22.30;37.32
21276;BME280;36472;52.170;20.884;2022-09-01T12:00:12;100933.78;;;22.31;35.85
21276;BME280;36472;52.170;20.884;2022-09-01T12:02:45;100936.19;;;21.99;36.04
21276;BME280;36472;52.170;20.884;2022-09-01T12:05:28;100935.22;;;21.40;37.04
21276;BME280;36472;52.170;20.884;2022-09-01T12:07:59;100927.72;;;22.12;37.26
21276;BME280;36472;52.170;20.884;2022-09-01T12:10:34;100918.72;;;21.79;38.04
21276;BME280;36472;52.170;20.884;2022-09-01T12:13:07;100920.09;;;22.34;36.84
21276;BME280;36472;52.170;20.884;2022-09-01T12:15:39;100929.31;;;22.48;35.77
21276;BME280;36472;52.170;20.884;2022-09-01T12:18:32;100938.03;;;22.41;35.33
21276;BME280;36472;52.170;20.884;2022-09-01T12:21:04;100931.66;;;22.00;36.88
21276;BME280;36472;52.170;20.884;2022-09-01T12:23:37;100927.03;;;22.02;37.11
21276;BME280;36472;52.170;20.884;2022-09-01T12:26:14;100923.28;;;22.37;36.28
21276;BME280;36472;52.170;20.884;2022-09-01T12:28:44;100915.94;;;22.39;36.75
21276;BME280;36472;52.170;20.884;2022-09-01T12:31:20;100913.56;;;22.28;35.59
21276;BME280;36472;52.170;20.884;2022-09-01T12:33:52;100904.50;;;22.21;35.76
21276;BME280;36472;52.170;20.884;2022-09-01T12:36:27;100911.09;;;22.51;34.94
21276;BME280;36472;52.170;20.884;2022-09-01T12:39:20;100907.56;;;22.51;34.87
21276;BME280;36472;52.170;20.884;2022-09-01T12:42:10;100909.22;;;22.44;35.26
21276;BME280;36472;52.170;20.884;2022-09-01T12:44:47;100917.53;;;22.24;34.91
21276;BME280;36472;52.170;20.884;2022-09-01T12:47:48;100913.75;;;22.59;34.82
21276;BME280;36472;52.170;20.884;2022-09-01T12:50:42;100911.19;;;22.25;36.36
21276;BME280;36472;52.170;20.884;2022-09-01T12:53:19;100917.94;;;22.78;34.49
21276;BME280;36472;52.170;20.884;2022-09-01T12:56:17;100910.50;;;22.23;35.57
21276;BME280;36472;52.170;20.884;2022-09-01T12:59:03;100911.38;;;22.32;35.40
21276;BME280;36472;52.170;20.884;2022-09-01T13:01:42;100903.44;;;22.06;34.75
21276;BME280;36472;52.170;20.884;2022-09-01T13:04:28;100902.44;;;21.98;35.15
21276;BME280;36472;52.170;20.884;2022-09-01T13:07:04;100902.81;;;21.43;36.25
21276;BME280;36472;52.170;20.884;2022-09-01T13:09:35;100900.13;;;20.90;38.51
21276;BME280;36472;52.170;20.884;2022-09-01T13:12:16;100889.31;;;21.18;37.17
21276;BME280;36472;52.170;20.884;2022-09-01T13:14:48;100904.72;;;21.24;37.47
21276;BME280;36472;52.170;20.884;2022-09-01T13:17:18;100900.38;;;21.23;37.39
21276;BME280;36472;52.170;20.884;2022-09-01T13:19:48;100903.59;;;20.65;38.74
21276;BME280;36472;52.170;20.884;2022-09-01T13:22:16;100896.09;;;20.14;39.59
21276;BME280;36472;52.170;20.884;2022-09-01T13:24:45;100888.09;;;20.14;38.37
21276;BME280;36472;52.170;20.884;2022-09-01T13:27:14;100887.84;;;20.98;37.48
21276;BME280;36472;52.170;20.884;2022-09-01T13:29:48;100877.97;;;21.85;35.35